Time;durP1;ratioP1;P1;durP2;ratioP2;P2;SDS_P1;SDS_P2;PMS_P1;PMS_P2;Temp;Humidity;BMP_temperature;BMP_pressure;BME280_temperature;BME280_humidity;BME280_pressure;Samples;Min_cycle;Max_cycle;Signal;HPM_P1;HPM_P2
2023/03/12 00:02:21;;;;;;;6.00;3.92;;;;;;;5.13;59.24;101065.13;5136747;27;20035;-63
2023/03/12 00:04:46;;;;;;;10.27;4.57;;;;;;;5.13;59.18;101079.09;5136531;27;20353;-63
2023/03/12 00:07:11;;;;;;;8.07;3.78;;;;;;;5.03;60.35;101070.03;5136054;27;20196;-63
2023/03/12 00:09:38;;;;;;;9.27;4.00;;;;;;;4.97;59.73;101067.19;5136425;27;20512;-63
2023/03/12 00:12:04;;;;;;;7.40;3.97;;;;;;;5.00;61.03;101066.41;5136591;27;20027;-63
2023/03/12 00:14:30;;;;;;;8.82;4.00;;;;;;;5.05;59.63;101061.31;5117964;27;20027;-63
2023/03/12 00:16:56;;;;;;;6.80;4.00;;;;;;;5.09;59.48;101058.88;5136341;27;20022;-63
2023/03/12 00:19:21;;;;;;;8.00;4.20;;;;;;;5.03;58.98;101062.16;5136464;27;20110;-63
2023/03/12 00:21:47;;;;;;;9.60;4.22;;;;;;;4.91;60.03;101064.34;5117796;27;20106;-63
2023/03/12 00:24:12;;;;;;;8.70;3.97;;;;;;;4.85;60.26;101055.38;5117678;27;20480;-63
2023/03/12 00:26:38;;;;;;;10.43;3.83;;;;;;;4.81;60.88;101043.00;5136106;27;20115;-63
2023/03/12 00:29:03;;;;;;;10.32;4.00;;;;;;;4.94;60.65;101045.25;5135211;27;20104;-63
2023/03/12 00:31:31;;;;;;;7.50;3.80;;;;;;;4.97;59.39;101033.16;5136064;27;20495;-63
2023/03/12 00:33:57;;;;;;;10.38;3.90;;;;;;;5.05;59.58;101035.13;5117709;27;20069;-63
2023/03/12 00:36:26;;;;;;;9.70;3.85;;;;;;;5.01;59.48;101028.88;5136041;27;20376;-63
2023/03/12 00:38:52;;;;;;;9.02;3.90;;;;;;;4.94;58.64;101024.28;5136089;27;20030;-63
2023/03/12 00:41:18;;;;;;;9.27;4.18;;;;;;;4.93;59.50;101023.41;5141179;27;20026;-63
2023/03/12 00:43:46;;;;;;;7.05;3.83;;;;;;;4.88;59.55;101037.13;5156321;27;20037;-63
2023/03/12 00:46:11;;;;;;;10.90;3.88;;;;;;;4.75;60.15;101034.09;5156318;27;20375;-63
2023/03/12 00:48:36;;;;;;;10.82;4.07;;;;;;;4.68;60.78;101025.94;5138212;27;20023;-63
2023/03/12 00:51:02;;;;;;;6.93;3.80;;;;;;;4.66;60.61;101020.63;5156422;27;20475;-63
2023/03/12 00:53:27;;;;;;;7.78;4.10;;;;;;;4.64;61.56;101024.06;5137683;27;20036;-63
2023/03/12 00:55:53;;;;;;;9.73;4.10;;;;;;;4.58;61.07;101003.75;5137750;27;20361;-63
2023/03/12 00:58:18;;;;;;;8.45;4.20;;;;;;;4.73;60.26;101012.19;5156027;27;20433;-63
2023/03/12 01:00:44;;;;;;;6.80;3.80;;;;;;;4.77;60.57;101008.84;5156224;27;20111;-63
2023/03/12 01:03:09;;;;;;;9.77;4.03;;;;;;;4.72;60.74;101001.69;5155882;27;20015;-63
2023/03/12 01:05:36;;;;;;;13.13;3.97;;;;;;;4.66;60.69;101001.44;5155888;27;20379;-63
2023/03/12 01:08:11;;;;;;;9.30;3.83;;;;;;;4.63;60.23;101009.19;5155889;27;20039;-63
2023/03/12 01:10:41;;;;;;;13.73;4.35;;;;;;;4.70;60.85;101000.72;5156252;27;20042;-63
2023/03/12 01:13:06;;;;;;;6.07;3.75;;;;;;;4.76;61.26;100995.72;5156154;27;20038;-63
2023/03/12 01:15:32;;;;;;;10.38;3.97;;;;;;;4.80;60.49;100996.69;5137433;27;20109;-63
2023/03/12 01:17:57;;;;;;;8.30;3.92;;;;;;;4.76;60.51;100990.47;5155821;27;20027;-63
2023/03/12 01:20:23;;;;;;;10.50;4.28;;;;;;;4.73;60.28;100985.13;5137205;27;20035;-63
2023/03/12 01:22:49;;;;;;;12.50;4.25;;;;;;;4.69;60.39;100989.34;5155920;27;20499;-63
2023/03/12 01:25:14;;;;;;;6.28;3.80;;;;;;;4.71;60.77;100989.41;5155481;27;20119;-63
2023/03/12 01:27:40;;;;;;;6.43;4.00;;;;;;;4.69;60.70;100989.34;5155578;27;20045;-63
2023/03/12 01:30:06;;;;;;;7.38;3.90;;;;;;;4.73;60.26;100980.78;5155740;27;20026;-63
2023/03/12 01:32:32;;;;;;;8.95;4.07;;;;;;;4.78;60.05;100989.69;5155373;27;20023;-63
2023/03/12 01:34:59;;;;;;;7.32;3.92;;;;;;;4.76;60.81;100994.00;5155339;27;20096;-63
2023/03/12 01:37:25;;;;;;;10.57;3.90;;;;;;;4.70;61.52;100987.63;5155325;27;20034;-63
2023/03/12 01:39:50;;;;;;;7.13;4.15;;;;;;;4.68;61.12;100987.59;5155330;27;20018;-63
2023/03/12 01:42:15;;;;;;;7.43;4.00;;;;;;;4.69;60.97;100976.28;5154752;27;20030;-63
2023/03/12 01:44:58;;;;;;;12.57;4.65;;;;;;;4.66;61.80;100970.91;5155192;27;20026;-63
2023/03/12 01:47:25;;;;;;;10.43;4.57;;;;;;;4.60;61.81;100982.91;5155297;27;20036;-63
2023/03/12 01:49:52;;;;;;;6.90;3.90;;;;;;;4.64;61.10;100977.84;5155267;27;20027;-63
2023/03/12 01:52:34;;;;;;;9.73;4.10;;;;;;;4.72;61.02;100963.31;5136852;27;20030;-63
2023/03/12 01:55:08;;;;;;;10.82;4.15;;;;;;;4.74;60.50;100947.63;5155054;27;20559;-63
2023/03/12 01:57:37;;;;;;;11.00;4.60;;;;;;;4.73;61.03;100946.75;5155302;27;20030;-63
2023/03/12 02:00:15;;;;;;;7.70;4.03;;;;;;;4.74;61.41;100955.50;5155040;27;20097;-63
2023/03/12 02:02:42;;;;;;;9.27;4.32;;;;;;;4.63;61.65;100949.00;5136281;27;20113;-63
2023/03/12 02:05:23;;;;;;;12.45;4.28;;;;;;;4.53;61.54;100942.50;5155182;27;20031;-63
2023/03/12 02:07:48;;;;;;;10.88;4.10;;;;;;;4.56;61.61;100946.97;5154874;27;20419;-63
2023/03/12 02:10:14;;;;;;;9.45;4.68;;;;;;;4.58;61.82;100948.81;5154975;27;20064;-63
2023/03/12 02:12:40;;;;;;;9.25;4.43;;;;;;;4.62;61.55;100940.22;5155176;27;20409;-64
2023/03/12 02:15:06;;;;;;;11.52;4.38;;;;;;;4.61;61.48;100938.44;5155002;27;20031;-63
2023/03/12 02:17:32;;;;;;;8.82;4.22;;;;;;;4.59;61.42;100934.91;5154754;27;20111;-63
2023/03/12 02:20:06;;;;;;;8.20;4.00;;;;;;;4.58;61.57;100932.22;5136715;27;20109;-63
2023/03/12 02:22:34;;;;;;;7.07;4.00;;;;;;;4.56;61.81;100928.66;5154679;27;20502;-63
2023/03/12 02:25:25;;;;;;;8.13;4.00;;;;;;;4.59;61.18;100923.56;5136093;27;20045;-63
2023/03/12 02:27:51;;;;;;;8.45;4.22;;;;;;;4.52;62.04;100925.03;5154725;27;20022;-64
2023/03/12 02:30:18;;;;;;;11.55;4.22;;;;;;;4.47;61.77;100918.75;5154699;27;20087;-63
2023/03/12 02:32:45;;;;;;;9.60;4.20;;;;;;;4.35;62.17;100902.59;5154502;27;20031;-63
2023/03/12 02:35:12;;;;;;;10.98;4.40;;;;;;;4.33;63.11;100913.03;5154883;27;20048;-63
2023/03/12 02:37:52;;;;;;;9.13;4.40;;;;;;;4.36;63.04;100914.84;5154589;27;20524;-63
2023/03/12 02:40:42;;;;;;;10.20;4.43;;;;;;;4.38;63.30;100911.47;5154666;27;20026;-63
2023/03/12 02:43:09;;;;;;;10.40;4.38;;;;;;;4.30;64.13;100912.91;5142179;27;20533;-63
2023/03/12 02:45:37;;;;;;;8.30;4.35;;;;;;;4.30;63.08;100920.75;5154446;27;20023;-63
2023/03/12 02:48:03;;;;;;;10.45;3.97;;;;;;;4.29;63.08;100921.59;5154480;27;20037;-63
2023/03/12 02:50:28;;;;;;;13.70;4.88;;;;;;;4.26;64.03;100924.97;5154431;27;20034;-63
2023/03/12 02:52:53;;;;;;;11.05;4.50;;;;;;;4.21;64.81;100918.69;5155946;27;20075;-63
2023/03/12 02:55:19;;;;;;;12.60;4.63;;;;;;;4.22;64.39;100919.56;5158425;27;20026;-63
2023/03/12 02:57:44;;;;;;;10.18;4.40;;;;;;;4.20;64.19;100919.53;5158771;27;20030;-63
2023/03/12 03:00:13;;;;;;;10.25;4.70;;;;;;;4.15;64.96;100910.59;5158450;27;20388;-63
2023/03/12 03:02:39;;;;;;;10.48;4.45;;;;;;;4.16;64.76;100906.28;5158379;27;20033;-63
2023/03/12 03:05:05;;;;;;;13.90;5.30;;;;;;;4.12;65.27;100897.44;5158087;27;20464;-63
2023/03/12 03:07:31;;;;;;;13.00;5.00;;;;;;;4.10;65.88;100895.56;5157994;27;20437;-63
2023/03/12 03:10:02;;;;;;;9.23;4.53;;;;;;;4.06;65.22;100905.03;5158345;27;20034;-63
2023/03/12 03:12:28;;;;;;;9.80;4.95;;;;;;;3.99;65.87;100898.69;5158559;27;20031;-63
2023/03/12 03:14:53;;;;;;;11.90;5.05;;;;;;;3.88;66.69;100902.59;5158294;27;20091;-63
2023/03/12 03:17:19;;;;;;;9.18;4.65;;;;;;;3.86;67.22;100904.28;5158249;27;20022;-63
2023/03/12 03:19:44;;;;;;;9.55;4.80;;;;;;;3.87;66.91;100910.41;5158230;27;20026;-63
2023/03/12 03:22:09;;;;;;;8.65;4.63;;;;;;;3.87;66.34;100903.44;5158248;27;20027;-63
2023/03/12 03:24:35;;;;;;;13.50;4.88;;;;;;;3.92;67.18;100909.72;5157940;27;20527;-63
2023/03/12 03:27:00;;;;;;;9.07;4.93;;;;;;;3.95;67.48;100908.97;5158261;27;20030;-63
2023/03/12 03:29:26;;;;;;;7.80;4.60;;;;;;;3.89;67.74;100911.31;5157964;27;20490;-63
2023/03/12 03:31:51;;;;;;;12.45;5.05;;;;;;;3.85;67.99;100910.31;5157890;27;20031;-63
2023/03/12 03:34:16;;;;;;;9.10;4.75;;;;;;;3.86;68.47;100903.38;5157736;27;20038;-63
2023/03/12 03:36:42;;;;;;;7.95;4.65;;;;;;;3.84;68.93;100911.16;5158025;27;20026;-63
2023/03/12 03:39:07;;;;;;;9.45;4.78;;;;;;;3.81;69.57;100905.78;5157741;27;20471;-63
2023/03/12 03:41:33;;;;;;;9.70;4.35;;;;;;;3.79;70.79;100902.25;5157756;27;20143;-63
2023/03/12 03:43:58;;;;;;;7.78;4.00;;;;;;;3.79;70.59;100901.38;5157843;27;20488;-64
2023/03/12 03:46:24;;;;;;;8.32;4.65;;;;;;;3.76;71.76;100891.66;5139232;27;20490;-63
2023/03/12 03:48:50;;;;;;;9.02;4.63;;;;;;;3.75;72.08;100893.38;5157627;27;20019;-63
2023/03/12 03:51:16;;;;;;;11.85;4.57;;;;;;;3.73;72.25;100892.47;5157483;27;20027;-63
2023/03/12 03:53:42;;;;;;;9.73;4.50;;;;;;;3.73;73.08;100878.50;5157555;27;20058;-63
2023/03/12 03:56:09;;;;;;;7.68;4.25;;;;;;;3.74;73.10;100867.22;5157355;27;20097;-63
2023/03/12 03:58:34;;;;;;;11.25;4.30;;;;;;;3.77;73.54;100862.13;5157519;27;20527;-63
2023/03/12 04:01:00;;;;;;;10.07;4.45;;;;;;;3.80;72.69;100850.88;5157561;27;20030;-63
2023/03/12 04:03:25;;;;;;;9.90;4.32;;;;;;;3.84;72.44;100843.19;5157102;27;20453;-63
2023/03/12 04:05:56;;;;;;;8.45;4.68;;;;;;;3.83;73.18;100854.50;5156159;27;20421;-62
2023/03/12 04:08:22;;;;;;;9.80;4.32;;;;;;;3.79;73.64;100852.59;5157125;27;20039;-63
2023/03/12 04:10:47;;;;;;;9.68;4.63;;;;;;;3.83;72.99;100857.09;5157313;27;20075;-63
2023/03/12 04:13:12;;;;;;;20.58;4.72;;;;;;;3.79;73.62;100842.13;5157339;27;20030;-64
2023/03/12 04:15:38;;;;;;;10.18;4.50;;;;;;;3.75;73.91;100843.75;5157065;27;20054;-63
2023/03/12 04:18:03;;;;;;;11.10;4.70;;;;;;;3.70;74.36;100834.84;5157283;27;20027;-63
2023/03/12 04:20:29;;;;;;;10.55;5.05;;;;;;;3.66;74.90;100832.06;5156990;27;20027;-63
2023/03/12 04:22:54;;;;;;;10.80;4.93;;;;;;;3.66;74.75;100819.88;5157165;27;20072;-63
2023/03/12 04:25:19;;;;;;;12.40;4.40;;;;;;;3.64;74.29;100811.09;5156733;27;20035;-63
2023/03/12 04:27:45;;;;;;;7.57;4.20;;;;;;;3.68;74.26;100815.63;5156833;27;20033;-63
2023/03/12 04:30:11;;;;;;;8.68;4.28;;;;;;;3.72;74.55;100811.38;5156707;27;20428;-63
2023/03/12 04:32:36;;;;;;;10.75;4.60;;;;;;;3.75;74.62;100801.94;5156968;27;20034;-63
2023/03/12 04:35:02;;;;;;;9.68;4.43;;;;;;;3.75;74.28;100796.69;5156782;27;20111;-63
2023/03/12 04:37:30;;;;;;;9.27;4.07;;;;;;;3.75;74.25;100798.44;5156561;27;20494;-63
2023/03/12 04:39:55;;;;;;;10.32;4.32;;;;;;;3.74;74.30;100788.81;5156660;27;20474;-63
2023/03/12 04:42:21;;;;;;;10.13;4.60;;;;;;;3.67;74.79;100781.56;5156537;27;20111;-63
2023/03/12 04:44:46;;;;;;;10.00;4.43;;;;;;;3.71;73.83;100786.06;5137938;27;20042;-63
2023/03/12 04:47:12;;;;;;;9.60;4.32;;;;;;;3.66;74.32;100778.06;5156463;27;20136;-63
2023/03/12 04:49:38;;;;;;;7.45;4.15;;;;;;;3.65;74.51;100784.13;5156253;27;20026;-63
2023/03/12 04:52:04;;;;;;;8.60;4.40;;;;;;;3.61;74.88;100787.47;5156446;27;20105;-63
2023/03/12 04:54:30;;;;;;;11.50;4.82;;;;;;;3.56;75.88;100791.63;5156200;27;20516;-63
2023/03/12 04:56:56;;;;;;;10.75;4.20;;;;;;;3.50;76.21;100778.31;5156192;27;20065;-63
2023/03/12 04:59:21;;;;;;;11.45;4.40;;;;;;;3.49;75.62;100787.88;5156152;27;20050;-63
2023/03/12 05:01:47;;;;;;;11.80;4.53;;;;;;;3.47;75.84;100778.22;5156126;27;20027;-63
2023/03/12 05:04:12;;;;;;;8.05;4.03;;;;;;;3.46;75.56;100777.31;5155758;27;20035;-63
2023/03/12 05:06:37;;;;;;;13.48;4.40;;;;;;;3.49;75.22;100771.31;5155868;27;20050;-63
2023/03/12 05:09:03;;;;;;;8.15;4.13;;;;;;;3.46;76.55;100772.06;5155971;27;20479;-63
2023/03/12 05:11:28;;;;;;;8.05;4.00;;;;;;;3.42;76.33;100757.13;5155974;27;20031;-63
2023/03/12 05:13:54;;;;;;;7.88;3.80;;;;;;;3.46;76.82;100760.75;5156025;27;20106;-63
2023/03/12 05:16:19;;;;;;;9.45;3.90;;;;;;;3.47;76.77;100747.75;5155739;27;20055;-63
2023/03/12 05:18:46;;;;;;;11.43;4.15;;;;;;;3.46;76.76;100740.72;5155812;27;20368;-63
2023/03/12 05:21:14;;;;;;;9.65;4.03;;;;;;;3.37;77.83;100742.13;5155932;27;20106;-62
2023/03/12 05:23:41;;;;;;;8.10;4.28;;;;;;;3.40;77.83;100745.75;5155870;27;20095;-62
2023/03/12 05:26:27;;;;;;;8.70;4.03;;;;;;;3.41;77.82;100746.63;5155723;27;20030;-63
2023/03/12 05:28:53;;;;;;;7.55;3.80;;;;;;;3.41;78.03;100738.78;5155222;27;20039;-63
2023/03/12 05:31:20;;;;;;;9.68;4.00;;;;;;;3.41;79.02;100744.00;5137507;27;20038;-63
2023/03/12 05:33:46;;;;;;;8.98;4.05;;;;;;;3.29;80.98;100738.31;5155611;27;20460;-63
2023/03/12 05:36:12;;;;;;;12.23;4.22;;;;;;;3.27;81.36;100730.44;5155259;27;20030;-63
2023/03/12 05:38:38;;;;;;;14.38;4.47;;;;;;;3.21;82.48;100730.19;5155406;27;20023;-63
2023/03/12 05:41:05;;;;;;;6.90;4.15;;;;;;;3.21;82.94;100731.09;5155641;27;20050;-63
2023/03/12 05:43:31;;;;;;;8.90;4.00;;;;;;;3.25;83.40;100727.78;5155440;27;20022;-63
2023/03/12 05:45:59;;;;;;;10.80;4.25;;;;;;;3.22;84.71;100734.59;5155193;27;20022;-63
2023/03/12 05:48:25;;;;;;;10.90;4.40;;;;;;;3.19;84.96;100747.53;5155496;27;20075;-63
2023/03/12 05:50:50;;;;;;;9.65;3.90;;;;;;;3.16;86.05;100732.63;5155462;27;20031;-63
2023/03/12 05:53:16;;;;;;;7.40;4.22;;;;;;;3.17;87.37;100738.72;5155083;27;20095;-63
2023/03/12 05:55:41;;;;;;;8.75;4.25;;;;;;;3.17;87.23;100734.44;5155167;27;20034;-63
2023/03/12 05:58:06;;;;;;;13.88;4.80;;;;;;;3.16;87.72;100732.63;5154983;27;20023;-63
2023/03/12 06:00:36;;;;;;;12.25;4.60;;;;;;;3.16;88.10;100727.41;5155185;27;20427;-63
2023/03/12 06:03:03;;;;;;;8.80;4.30;;;;;;;3.15;88.86;100724.75;5155059;27;20027;-63
2023/03/12 06:05:29;;;;;;;12.70;4.10;;;;;;;3.17;88.59;100723.06;5154900;27;20035;-63
2023/03/12 06:07:55;;;;;;;10.65;4.25;;;;;;;3.20;90.02;100733.63;5132817;27;20051;-63
2023/03/12 06:10:20;;;;;;;8.85;4.55;;;;;;;3.23;90.17;100739.00;5134026;27;20031;-64
2023/03/12 06:12:46;;;;;;;10.38;4.10;;;;;;;3.26;89.59;100734.78;5134248;27;20110;-63
2023/03/12 06:15:11;;;;;;;7.50;4.05;;;;;;;3.30;90.25;100738.41;5134090;27;20034;-63
2023/03/12 06:17:36;;;;;;;12.73;4.55;;;;;;;3.28;91.15;100731.31;5133848;27;20026;-63
2023/03/12 06:20:02;;;;;;;12.50;4.82;;;;;;;3.33;91.18;100745.44;5133976;27;20048;-63
2023/03/12 06:22:28;;;;;;;7.68;4.55;;;;;;;3.32;92.07;100744.56;5134008;27;20128;-63
2023/03/12 06:24:54;;;;;;;13.15;4.85;;;;;;;3.34;92.27;100748.13;5133642;27;20027;-63
2023/03/12 06:27:19;;;;;;;13.85;4.75;;;;;;;3.36;93.22;100753.41;5131953;27;20038;-63
2023/03/12 06:29:46;;;;;;;7.95;4.47;;;;;;;3.38;92.92;100746.50;5134072;27;20047;-63
2023/03/12 06:32:11;;;;;;;11.73;5.43;;;;;;;3.37;93.93;100747.34;5132742;28;20031;-63
2023/03/12 06:34:37;;;;;;;9.00;4.97;;;;;;;3.33;93.91;100729.78;5133585;28;20050;-63
2023/03/12 06:37:02;;;;;;;13.95;4.68;;;;;;;3.37;93.60;100732.56;5132392;28;20114;-62
2023/03/12 06:39:28;;;;;;;11.43;4.80;;;;;;;3.41;93.12;100733.56;5133258;28;20036;-63
2023/03/12 06:41:54;;;;;;;10.55;5.20;;;;;;;3.36;95.30;100732.50;5133624;27;20052;-63
2023/03/12 06:44:20;;;;;;;10.52;4.70;;;;;;;3.36;95.86;100725.56;5133109;27;20019;-63
2023/03/12 06:46:45;;;;;;;11.65;5.38;;;;;;;3.37;95.76;100718.63;5133312;27;20384;-64
2023/03/12 06:49:10;;;;;;;12.15;4.93;;;;;;;3.32;97.12;100718.44;5133129;28;20049;-64
2023/03/12 06:51:36;;;;;;;12.02;4.78;;;;;;;3.28;97.43;100716.53;5133096;27;20027;-64
2023/03/12 06:54:01;;;;;;;7.82;4.93;;;;;;;3.32;98.29;100717.56;5133252;28;20077;-64
2023/03/12 06:56:27;;;;;;;13.23;5.18;;;;;;;3.34;97.99;100713.28;5133040;27;20400;-64
2023/03/12 06:58:53;;;;;;;10.75;5.68;;;;;;;3.30;99.74;100699.22;5133535;27;20026;-64
2023/03/12 07:01:18;;;;;;;14.93;6.10;;;;;;;3.34;98.48;100700.22;5132906;27;20031;-64
2023/03/12 07:03:44;;;;;;;12.20;5.43;;;;;;;3.30;99.72;100701.84;5132903;28;20024;-64
2023/03/12 07:06:18;;;;;;;7.78;4.93;;;;;;;3.30;100.00;100688.78;5131921;28;20119;-64
2023/03/12 07:08:44;;;;;;;8.23;5.55;;;;;;;3.32;100.00;100696.66;5133103;27;20125;-64
2023/03/12 07:11:10;;;;;;;8.80;4.78;;;;;;;3.33;100.00;100695.81;5132894;27;20113;-64
2023/03/12 07:13:35;;;;;;;10.65;5.47;;;;;;;3.32;100.00;100694.94;5132884;28;20058;-64
2023/03/12 07:16:01;;;;;;;12.88;6.68;;;;;;;3.34;100.00;100698.50;5132854;27;20046;-64
2023/03/12 07:18:26;;;;;;;13.82;5.10;;;;;;;3.35;100.00;100689.84;5132873;27;20026;-65
2023/03/12 07:20:52;;;;;;;9.68;5.90;;;;;;;3.36;100.00;100696.84;5133135;27;20357;-65
2023/03/12 07:23:18;;;;;;;9.00;5.35;;;;;;;3.38;100.00;100683.81;5132721;27;20483;-65
2023/03/12 07:25:44;;;;;;;10.02;5.80;;;;;;;3.41;100.00;100686.56;5132880;27;20392;-64
2023/03/12 07:28:11;;;;;;;11.25;5.72;;;;;;;3.42;100.00;100686.59;5132557;27;20049;-65
2023/03/12 07:30:37;;;;;;;12.70;5.57;;;;;;;3.46;100.00;100693.72;5132684;27;20535;-64
2023/03/12 07:33:04;;;;;;;10.18;5.88;;;;;;;3.41;100.00;100686.56;5132456;27;20051;-64
2023/03/12 07:35:31;;;;;;;11.88;5.88;;;;;;;3.39;100.00;100704.78;5132787;27;20023;-65
2023/03/12 07:37:57;;;;;;;15.73;7.00;;;;;;;3.38;100.00;100704.72;5132460;27;20118;-65
2023/03/12 07:40:22;;;;;;;13.07;5.80;;;;;;;3.39;100.00;100696.97;5134704;27;20048;-65
2023/03/12 07:42:49;;;;;;;14.40;5.93;;;;;;;3.40;100.00;100697.84;5136506;27;20080;-65
2023/03/12 07:45:14;;;;;;;13.07;6.43;;;;;;;3.40;100.00;100703.06;5136025;27;20491;-65
2023/03/12 07:47:40;;;;;;;12.98;6.72;;;;;;;3.40;100.00;100697.84;5136347;27;20023;-65
2023/03/12 07:50:05;;;;;;;10.50;6.18;;;;;;;3.45;100.00;100709.34;5135920;27;20024;-66
2023/03/12 07:52:31;;;;;;;10.68;6.18;;;;;;;3.47;100.00;100712.91;5136346;27;20372;-66
2023/03/12 07:54:57;;;;;;;11.73;6.75;;;;;;;3.47;100.00;100703.34;5135847;27;20072;-66
2023/03/12 07:57:23;;;;;;;11.45;6.40;;;;;;;3.52;100.00;100698.31;5136007;27;20041;-66
2023/03/12 07:59:49;;;;;;;13.93;7.57;;;;;;;3.54;100.00;100694.00;5136021;27;20102;-66
2023/03/12 08:02:14;;;;;;;12.65;7.20;;;;;;;3.59;100.00;100705.50;5135942;27;20557;-66
2023/03/12 08:04:40;;;;;;;12.73;7.00;;;;;;;3.61;100.00;100698.63;5135679;27;20102;-66
2023/03/12 08:07:05;;;;;;;11.68;7.35;;;;;;;3.66;100.00;100706.63;5142581;27;20392;-66
2023/03/12 08:09:32;;;;;;;13.60;7.65;;;;;;;3.62;100.00;100689.94;5156650;27;20442;-67
2023/03/12 08:11:57;;;;;;;13.73;7.05;;;;;;;3.75;100.00;100704.34;5156234;27;20038;-66
2023/03/12 08:14:23;;;;;;;13.82;8.05;;;;;;;3.81;100.00;100706.28;5156440;27;20023;-66
2023/03/12 08:16:48;;;;;;;12.88;8.02;;;;;;;3.85;100.00;100702.94;5156017;27;20057;-66
2023/03/12 08:19:15;;;;;;;13.20;7.60;;;;;;;3.90;100.00;100693.56;5156426;27;20026;-66
2023/03/12 08:21:40;;;;;;;12.38;7.78;;;;;;;3.92;100.00;100697.09;5155926;27;20393;-66
2023/03/12 08:24:06;;;;;;;14.70;7.90;;;;;;;3.98;100.00;100703.47;5156161;27;20106;-67
2023/03/12 08:26:31;;;;;;;14.45;8.05;;;;;;;3.99;100.00;100697.38;5156344;27;20151;-67
2023/03/12 08:28:59;;;;;;;12.02;8.40;;;;;;;4.05;100.00;100706.25;5155916;27;20476;-67
2023/03/12 08:31:25;;;;;;;11.68;7.90;;;;;;;4.09;100.00;100706.41;5156451;27;20047;-66
2023/03/12 08:33:50;;;;;;;16.48;8.20;;;;;;;4.16;100.00;100713.66;5155877;27;20041;-66
2023/03/12 08:36:16;;;;;;;16.00;8.82;;;;;;;4.20;100.00;100715.53;5156052;27;20027;-67
2023/03/12 08:38:41;;;;;;;16.58;8.60;;;;;;;4.26;100.00;100709.63;5155761;27;20055;-66
2023/03/12 08:41:06;;;;;;;13.27;8.52;;;;;;;4.32;100.00;100722.88;5137859;27;20313;-66
2023/03/12 08:43:32;;;;;;;15.85;9.00;;;;;;;4.37;100.00;100713.50;5155669;27;20110;-67
2023/03/12 08:45:59;;;;;;;13.15;8.82;;;;;;;4.42;100.00;100705.78;5137380;27;20160;-67
2023/03/12 08:48:26;;;;;;;13.93;8.43;;;;;;;4.47;100.00;100717.28;5155743;27;20104;-67
2023/03/12 08:50:55;;;;;;;16.35;9.02;;;;;;;4.51;100.00;100725.28;5155232;27;20105;-67
2023/03/12 08:53:20;;;;;;;10.70;7.57;;;;;;;4.60;100.00;100729.06;5155595;27;20030;-67
2023/03/12 08:55:45;;;;;;;14.50;7.97;;;;;;;4.64;100.00;100721.34;5136899;27;20031;-67
2023/03/12 08:58:11;;;;;;;11.82;7.93;;;;;;;4.71;100.00;100733.81;5155892;27;20114;-67
2023/03/12 09:00:36;;;;;;;12.10;7.28;;;;;;;4.81;100.00;100723.63;5155308;27;20026;-66
2023/03/12 09:03:02;;;;;;;11.93;7.22;;;;;;;4.85;100.00;100728.13;5155651;27;20026;-66
2023/03/12 09:05:28;;;;;;;13.45;7.50;;;;;;;4.99;100.00;100734.69;5155279;27;20019;-66
2023/03/12 09:07:55;;;;;;;12.30;7.43;;;;;;;5.05;100.00;100728.72;5155119;27;20084;-66
2023/03/12 09:10:20;;;;;;;12.85;8.35;;;;;;;5.12;100.00;100720.22;5155189;27;20030;-66
2023/03/12 09:12:46;;;;;;;15.85;8.90;;;;;;;5.19;100.00;100730.06;5155362;27;20379;-66
2023/03/12 09:15:11;;;;;;;18.40;9.38;;;;;;;5.26;100.00;100727.66;5155402;27;20078;-66
2023/03/12 09:17:37;;;;;;;19.05;11.80;;;;;;;5.38;100.00;100732.38;5155096;27;20042;-66
2023/03/12 09:20:07;;;;;;;18.98;10.73;;;;;;;5.48;100.00;100737.06;5155229;27;20509;-67
2023/03/12 09:22:35;;;;;;;17.20;11.45;;;;;;;5.60;100.00;100728.66;5154880;27;20185;-67
2023/03/12 09:25:02;;;;;;;19.60;11.57;;;;;;;5.68;100.00;100719.28;5155032;27;20494;-67
2023/03/12 09:27:28;;;;;;;18.23;12.18;;;;;;;5.78;100.00;100716.09;5136220;27;20027;-67
2023/03/12 09:29:53;;;;;;;21.77;12.60;;;;;;;5.89;100.00;100712.88;5155353;27;20019;-67
2023/03/12 09:32:19;;;;;;;20.33;12.30;;;;;;;6.02;100.00;100715.88;5154677;27;20022;-66
2023/03/12 09:34:44;;;;;;;23.67;12.88;;;;;;;6.13;100.00;100725.81;5154989;27;20027;-67
2023/03/12 09:37:10;;;;;;;20.77;12.20;;;;;;;6.22;100.00;100718.16;5154655;27;20438;-66
2023/03/12 09:39:35;;;;;;;21.88;12.43;;;;;;;6.31;100.00;100731.53;5154649;27;20023;-67
2023/03/12 09:42:03;;;;;;;23.67;14.32;;;;;;;6.41;100.00;100722.13;5154613;27;20033;-67
2023/03/12 09:44:42;;;;;;;21.55;13.57;;;;;;;6.48;100.00;100724.09;5154542;27;20034;-67
2023/03/12 09:47:29;;;;;;;25.13;14.75;;;;;;;6.59;100.00;100726.97;5154763;27;20443;-66
2023/03/12 09:50:02;;;;;;;22.30;14.35;;;;;;;6.68;100.00;100735.06;5154195;27;20034;-66
2023/03/12 09:52:42;;;;;;;22.15;14.65;;;;;;;6.75;100.00;100735.25;5113197;28;20561;-66
2023/03/12 09:55:13;;;;;;;24.77;14.98;;;;;;;6.84;100.00;100745.09;5113383;28;20046;-67
2023/03/12 09:57:39;;;;;;;21.70;15.00;;;;;;;6.89;100.00;100747.84;5113139;28;20024;-66
2023/03/12 10:00:15;;;;;;;24.10;14.80;;;;;;;6.96;100.00;100755.91;5094612;28;20330;-66
2023/03/12 10:02:52;;;;;;;22.38;15.95;;;;;;;7.01;100.00;100751.63;5094277;28;20031;-66
2023/03/12 10:05:30;;;;;;;24.30;14.18;;;;;;;7.08;100.00;100750.06;5112734;28;20103;-66
2023/03/12 10:08:11;;;;;;;19.15;14.10;;;;;;;7.13;100.00;100755.41;5112765;28;20047;-66
2023/03/12 10:10:56;;;;;;;23.30;15.07;;;;;;;7.15;100.00;100738.84;5112881;28;20043;-66
2023/03/12 10:13:31;;;;;;;21.10;14.52;;;;;;;7.26;100.00;100750.47;5113334;28;20114;-66
2023/03/12 10:16:25;;;;;;;26.05;17.13;;;;;;;7.34;100.00;100753.28;5113067;28;20023;-66
2023/03/12 10:19:00;;;;;;;21.73;14.75;;;;;;;7.44;100.00;100747.34;5094835;28;20118;-66
2023/03/12 10:21:37;;;;;;;24.65;15.85;;;;;;;7.55;100.00;100757.22;5112910;28;20027;-66
2023/03/12 10:24:23;;;;;;;23.73;14.93;;;;;;;7.66;100.00;100746.06;5112917;28;20030;-65
2023/03/12 10:26:51;;;;;;;24.35;15.50;;;;;;;7.75;100.00;100748.91;5113020;28;20031;-66
2023/03/12 10:29:23;;;;;;;22.48;15.35;;;;;;;7.80;100.00;100743.75;5112881;28;20496;-66
2023/03/12 10:32:06;;;;;;;22.92;14.13;;;;;;;7.85;100.00;100751.72;5112580;28;20047;-66
2023/03/12 10:34:41;;;;;;;22.63;14.00;;;;;;;7.88;100.00;100749.13;5112568;28;20408;-66
2023/03/12 10:37:41;;;;;;;27.13;15.45;;;;;;;7.89;100.00;100750.94;5112684;28;20404;-66
2023/03/12 10:40:17;;;;;;;29.73;14.95;;;;;;;7.96;100.00;100755.44;5107529;28;20054;-66
2023/03/12 10:42:43;;;;;;;31.15;15.13;;;;;;;8.01;100.00;100753.81;5114686;28;20023;-66
2023/03/12 10:45:08;;;;;;;28.92;15.27;;;;;;;8.06;100.00;100756.53;5119749;28;20020;-65
2023/03/12 10:47:36;;;;;;;28.75;15.35;;;;;;;8.09;100.00;100749.56;5112451;28;20132;-65
2023/03/12 10:50:24;;;;;;;29.67;15.02;;;;;;;8.16;100.00;100754.09;5112981;28;20364;-66
2023/03/12 10:52:52;;;;;;;31.50;16.23;;;;;;;8.24;100.00;100749.84;5112354;28;20028;-66
2023/03/12 10:55:20;;;;;;;31.70;16.30;;;;;;;8.34;100.00;100742.13;5112750;28;20027;-66
2023/03/12 10:57:46;;;;;;;36.88;16.85;;;;;;;8.40;100.00;100748.44;5112283;28;20618;-65
2023/03/12 11:00:28;;;;;;;35.40;15.93;;;;;;;8.51;100.00;100746.84;5112328;28;20051;-64
2023/03/12 11:03:05;;;;;;;35.45;16.27;;;;;;;8.58;100.00;100750.50;5094122;28;20499;-65
2023/03/12 11:05:52;;;;;;;29.65;15.35;;;;;;;8.68;100.00;100754.16;5112227;28;20024;-66
2023/03/12 11:08:35;;;;;;;30.50;15.55;;;;;;;8.73;100.00;100749.84;5111882;28;20437;-65
2023/03/12 11:11:03;;;;;;;28.45;14.13;;;;;;;8.78;100.00;100745.56;5112243;28;20097;-65
2023/03/12 11:13:35;;;;;;;32.95;15.20;;;;;;;8.85;100.00;100752.69;5113097;28;20019;-65
2023/03/12 11:16:20;;;;;;;47.13;14.77;;;;;;;8.92;100.00;100751.94;5116118;28;20110;-66
2023/03/12 11:19:00;;;;;;;26.88;14.55;;;;;;;9.10;100.00;100751.34;5116432;28;20024;-66
2023/03/12 11:21:26;;;;;;;30.52;13.23;;;;;;;9.17;100.00;100758.47;5116188;28;20027;-66
2023/03/12 11:23:57;;;;;;;34.17;14.05;;;;;;;9.22;100.00;100759.44;5116079;28;20491;-66
2023/03/12 11:26:28;;;;;;;34.17;13.80;;;;;;;9.27;100.00;100763.00;5115929;28;20024;-66
2023/03/12 11:29:21;;;;;;;38.72;13.70;;;;;;;9.32;100.00;100756.94;5116496;28;20032;-67